Time;durP1;ratioP1;P1;durP2;ratioP2;P2;SDS_P1;SDS_P2;PMS_P1;PMS_P2;Temp;Humidity;BMP_temperature;BMP_pressure;BME280_temperature;BME280_humidity;BME280_pressure;Samples;Min_cycle;Max_cycle;Signal;HPM_P1;HPM_P2
2022/06/11 00:00:20;;;;;;;4.05;1.80;;;;;;;23.95;38.56;100008.94;4157343;28;20720;-67
2022/06/11 00:02:22;;;;;;;4.73;2.27;;;;;;;23.75;39.14;100014.81;4161046;28;20240;-67
2022/06/11 00:04:43;;;;;;;5.07;2.00;;;;;;;23.85;39.23;100016.91;4155958;28;20236;-67
2022/06/11 00:06:49;;;;;;;4.47;2.03;;;;;;;24.04;38.07;100012.13;4155074;28;20245;-67
2022/06/11 00:08:51;;;;;;;4.03;2.07;;;;;;;23.71;38.60;100007.41;4153835;28;20772;-67
2022/06/11 00:10:53;;;;;;;5.10;2.40;;;;;;;23.76;38.25;100007.50;4159083;28;20240;-68
2022/06/11 00:12:55;;;;;;;5.70;2.27;;;;;;;23.68;38.40;100007.88;4160706;28;20623;-67
2022/06/11 00:14:56;;;;;;;3.80;2.30;;;;;;;23.81;38.33;100021.19;4156330;28;20548;-67
2022/06/11 00:17:00;;;;;;;3.03;2.20;;;;;;;23.85;38.42;100008.75;4155480;28;20244;-68
2022/06/11 00:19:03;;;;;;;3.75;2.00;;;;;;;23.61;38.80;100015.34;4161083;28;20233;-67
2022/06/11 00:21:05;;;;;;;3.47;2.10;;;;;;;23.15;39.65;100010.50;4160635;28;20339;-67
2022/06/11 00:23:07;;;;;;;5.30;2.00;;;;;;;22.64;41.30;100011.94;4159853;28;20229;-67
2022/06/11 00:25:09;;;;;;;3.80;1.70;;;;;;;22.56;41.73;99999.59;4155301;28;20845;-69
2022/06/11 00:27:13;;;;;;;5.78;1.80;;;;;;;21.60;43.88;99993.97;4157895;28;20248;-67
2022/06/11 00:29:16;;;;;;;4.20;1.73;;;;;;;21.41;44.29;99970.66;4160904;28;20236;-67
2022/06/11 00:31:18;;;;;;;2.20;1.63;;;;;;;20.86;45.10;99971.41;4159702;28;20240;-67
2022/06/11 00:33:20;;;;;;;2.53;1.70;;;;;;;21.09;44.78;99965.38;4160582;28;20246;-67
2022/06/11 00:35:24;;;;;;;3.80;1.87;;;;;;;21.37;44.64;99962.16;4153020;28;20232;-67
2022/06/11 00:37:26;;;;;;;3.92;1.90;;;;;;;21.24;44.60;99954.19;4159558;28;20709;-67
2022/06/11 00:39:31;;;;;;;4.13;2.00;;;;;;;21.31;44.20;99953.09;4163461;28;20251;-67
2022/06/11 00:41:37;;;;;;;3.80;1.98;;;;;;;21.27;44.67;99959.97;4159730;28;20638;-67
2022/06/11 00:43:40;;;;;;;5.90;2.20;;;;;;;21.84;43.58;99951.63;4156680;28;20263;-68
2022/06/11 00:45:56;;;;;;;6.07;2.13;;;;;;;22.02;43.23;99969.72;4157196;28;20319;-67
2022/06/11 00:48:30;;;;;;;3.10;2.10;;;;;;;22.80;41.90;99961.66;4161467;28;20262;-67
2022/06/11 00:50:39;;;;;;;5.73;2.23;;;;;;;22.08;42.57;99987.75;4158926;28;20819;-67
2022/06/11 00:52:44;;;;;;;4.83;2.17;;;;;;;22.81;40.69;99977.69;4159505;28;20247;-67
2022/06/11 00:54:56;;;;;;;3.53;1.90;;;;;;;23.31;39.46;99984.53;4152619;28;20225;-68
2022/06/11 00:57:00;;;;;;;5.00;2.03;;;;;;;21.74;43.32;99994.66;4157763;28;20232;-67
2022/06/11 00:59:06;;;;;;;3.17;1.80;;;;;;;22.21;42.27;99986.72;4160743;28;20237;-67
2022/06/11 01:01:08;;;;;;;4.73;2.20;;;;;;;22.49;41.82;99985.31;4159822;28;20701;-68
2022/06/11 01:03:13;;;;;;;3.28;1.70;;;;;;;22.28;42.32;99997.47;4158055;28;20246;-67
2022/06/11 01:05:23;;;;;;;5.35;2.38;;;;;;;21.51;43.72;99979.06;4157546;28;20739;-67
2022/06/11 01:07:49;;;;;;;4.90;2.13;;;;;;;22.41;42.05;99975.63;4156464;28;20240;-67
2022/06/11 01:10:09;;;;;;;3.53;1.80;;;;;;;21.65;43.65;99983.31;4157857;28;20799;-67
2022/06/11 01:12:40;;;;;;;3.43;1.80;;;;;;;22.41;42.01;99974.81;4159048;28;20660;-67
2022/06/11 01:14:42;;;;;;;4.23;2.17;;;;;;;22.26;43.06;99980.63;4156303;28;20275;-67
2022/06/11 01:16:56;;;;;;;4.20;1.93;;;;;;;22.78;42.43;99975.47;4154179;28;20884;-68
2022/06/11 01:19:40;;;;;;;3.90;2.03;;;;;;;23.66;41.10;99991.00;4145012;28;20264;-67
2022/06/11 01:22:17;;;;;;;6.37;2.17;;;;;;;22.88;42.67;100001.13;4158606;28;20236;-67
2022/06/11 01:24:37;;;;;;;3.97;2.03;;;;;;;22.40;43.56;99992.94;4157067;28;20278;-67
2022/06/11 01:26:50;;;;;;;5.50;2.13;;;;;;;23.57;41.35;99988.66;4157275;28;20668;-67
2022/06/11 01:28:58;;;;;;;3.67;1.90;;;;;;;23.69;41.12;99993.25;4157463;28;20251;-67
2022/06/11 01:31:06;;;;;;;6.90;2.53;;;;;;;23.38;41.82;100011.53;4158309;28;20227;-68
2022/06/11 01:33:13;;;;;;;4.53;1.90;;;;;;;23.16;42.26;100001.28;4160514;28;20297;-67
2022/06/11 01:35:54;;;;;;;5.83;2.20;;;;;;;23.81;41.42;99995.91;4153163;28;20289;-67
2022/06/11 01:38:06;;;;;;;2.43;1.93;;;;;;;23.39;41.53;100007.78;4161554;28;20232;-67
2022/06/11 01:40:20;;;;;;;4.50;2.17;;;;;;;22.91;42.60;100015.09;4155107;28;20228;-67
2022/06/11 01:42:27;;;;;;;6.30;2.20;;;;;;;22.96;42.97;100004.38;4157217;28;20236;-67
2022/06/11 01:44:33;;;;;;;3.60;2.10;;;;;;;23.08;42.99;99998.97;4155130;28;20228;-68
2022/06/11 01:46:39;;;;;;;4.37;2.20;;;;;;;22.82;43.57;99998.31;4157576;28;20225;-67
2022/06/11 01:48:50;;;;;;;3.87;2.00;;;;;;;23.50;42.57;99993.38;4154061;28;20228;-67
2022/06/11 01:51:27;;;;;;;3.60;2.27;;;;;;;23.73;42.61;99995.22;4156287;28;20232;-67
2022/06/11 01:53:40;;;;;;;4.37;2.07;;;;;;;23.49;42.88;100005.28;4155460;28;20225;-68
2022/06/11 01:56:07;;;;;;;3.53;2.20;;;;;;;23.23;43.80;100011.22;4157601;28;20267;-67
2022/06/11 01:58:15;;;;;;;4.17;1.90;;;;;;;22.95;44.20;100005.44;4155673;28;20259;-67
2022/06/11 02:00:22;;;;;;;4.47;1.90;;;;;;;22.02;45.59;100004.09;4157896;28;20232;-67
2022/06/11 02:02:52;;;;;;;4.93;2.20;;;;;;;21.52;46.28;99984.25;4156744;28;20285;-67
2022/06/11 02:05:13;;;;;;;3.50;2.30;;;;;;;23.00;43.81;99974.91;4156020;28;20410;-67
2022/06/11 02:07:44;;;;;;;4.93;2.73;;;;;;;22.94;43.72;99994.81;4158909;28;20232;-67
2022/06/11 02:10:15;;;;;;;4.07;3.00;;;;;;;22.26;44.95;99997.69;4156110;28;20670;-67
2022/06/11 02:12:49;;;;;;;3.47;2.47;;;;;;;22.24;45.07;99990.88;4158777;28;20806;-67
2022/06/11 02:15:20;;;;;;;3.97;2.10;;;;;;;21.82;45.62;100001.66;4155045;28;20241;-67
2022/06/11 02:17:31;;;;;;;3.80;2.37;;;;;;;21.66;46.04;100000.38;4151152;28;20298;-67
2022/06/11 02:19:42;;;;;;;3.33;2.43;;;;;;;22.76;44.08;99996.56;4158246;28;20236;-67
2022/06/11 02:21:59;;;;;;;3.33;2.70;;;;;;;22.96;43.64;100008.97;4160358;28;20775;-67
2022/06/11 02:24:29;;;;;;;5.30;2.37;;;;;;;22.68;44.23;100013.16;4155133;28;20556;-67
2022/06/11 02:26:36;;;;;;;4.50;2.90;;;;;;;22.23;45.10;100019.00;4156080;28;20290;-68
2022/06/11 02:28:42;;;;;;;3.53;2.30;;;;;;;22.10;44.99;100020.84;4158309;28;20228;-67
2022/06/11 02:30:46;;;;;;;4.43;2.40;;;;;;;22.03;45.46;100006.53;4152122;28;20229;-67
2022/06/11 02:32:48;;;;;;;4.77;2.60;;;;;;;22.02;45.67;99994.09;4155058;28;20838;-67
2022/06/11 02:34:55;;;;;;;3.47;2.53;;;;;;;22.16;45.08;99996.63;4156684;28;20212;-67
2022/06/11 02:37:00;;;;;;;3.60;2.50;;;;;;;22.74;43.52;100005.97;4159539;28;20451;-67
2022/06/11 02:39:04;;;;;;;4.07;2.50;;;;;;;21.80;45.46;100015.41;4157896;28;20232;-67
2022/06/11 02:41:13;;;;;;;3.70;2.20;;;;;;;20.77;47.73;100014.09;4158288;28;20293;-68
2022/06/11 02:43:15;;;;;;;3.37;2.40;;;;;;;21.41;46.87;99987.72;4157679;28;20763;-67
2022/06/11 02:45:17;;;;;;;8.40;2.60;;;;;;;21.23;47.08;100004.75;4159438;28;20224;-67
2022/06/11 02:47:20;;;;;;;5.90;2.57;;;;;;;21.81;46.10;99997.28;4153410;28;20384;-67
2022/06/11 02:49:34;;;;;;;3.80;2.70;;;;;;;21.86;45.72;100000.13;4156913;28;20297;-67
2022/06/11 02:51:38;;;;;;;5.83;3.03;;;;;;;21.54;46.03;100008.38;4156403;28;20255;-67
2022/06/11 02:53:40;;;;;;;4.77;2.60;;;;;;;21.85;45.86;99996.59;4157776;28;20644;-67
2022/06/11 02:55:43;;;;;;;6.43;2.53;;;;;;;21.30;46.85;100019.03;4157168;28;20290;-67
2022/06/11 02:57:45;;;;;;;4.97;2.50;;;;;;;20.50;48.47;100013.44;4157773;28;20286;-68
2022/06/11 02:59:49;;;;;;;5.10;3.03;;;;;;;20.95;47.61;99992.53;4157335;28;20298;-67
2022/06/11 03:01:52;;;;;;;4.30;3.50;;;;;;;20.86;47.76;99998.44;4150586;28;20319;-67
2022/06/11 03:03:54;;;;;;;5.77;3.77;;;;;;;20.67;48.21;100009.19;4153433;28;20225;-68
2022/06/11 03:05:58;;;;;;;6.60;3.47;;;;;;;20.50;48.72;99994.53;4158465;28;20232;-67
2022/06/11 03:08:01;;;;;;;5.70;3.30;;;;;;;20.70;48.15;99997.94;4154698;28;20291;-68
2022/06/11 03:10:04;;;;;;;8.63;3.93;;;;;;;21.23;47.46;99982.31;4154977;28;20232;-68
2022/06/11 03:12:08;;;;;;;6.20;3.67;;;;;;;21.69;46.24;100003.44;4153690;28;20289;-67
2022/06/11 03:14:10;;;;;;;4.03;3.30;;;;;;;21.34;47.06;99998.63;4159989;28;20232;-67
2022/06/11 03:16:13;;;;;;;11.17;3.40;;;;;;;21.41;46.66;100019.34;4150359;28;20307;-67
2022/06/11 03:18:15;;;;;;;4.67;3.10;;;;;;;20.68;48.51;100023.50;4158933;28;20636;-68
2022/06/11 03:20:19;;;;;;;5.70;2.93;;;;;;;20.22;49.67;100025.44;4148562;28;20264;-68
2022/06/11 03:22:21;;;;;;;3.73;3.10;;;;;;;21.30;47.86;99994.69;4157237;28;20707;-67
2022/06/11 03:24:24;;;;;;;5.67;2.93;;;;;;;21.55;47.00;100004.63;4151763;28;20358;-67
2022/06/11 03:26:26;;;;;;;5.63;3.20;;;;;;;21.30;47.47;100024.44;4155814;28;20255;-68
2022/06/11 03:28:29;;;;;;;8.70;3.20;;;;;;;21.73;46.42;100015.47;4157788;28;20294;-67
2022/06/11 03:30:31;;;;;;;4.77;2.93;;;;;;;21.58;46.84;100028.53;4152610;28;20236;-67
2022/06/11 03:32:33;;;;;;;6.83;3.37;;;;;;;22.28;45.48;100033.53;4157124;28;20232;-67
2022/06/11 03:34:35;;;;;;;8.00;3.43;;;;;;;22.46;45.84;100048.09;4153185;28;20761;-67
2022/06/11 03:36:38;;;;;;;3.70;3.00;;;;;;;21.32;47.95;100046.69;4157758;28;20318;-67
2022/06/11 03:38:42;;;;;;;8.27;3.87;;;;;;;21.08;48.33;100051.06;4157342;28;20294;-67
2022/06/11 03:40:44;;;;;;;5.77;3.43;;;;;;;20.83;48.56;100050.22;4157319;28;20298;-67
2022/06/11 03:42:46;;;;;;;7.43;3.50;;;;;;;21.59;47.17;100046.41;4150715;28;20675;-67
2022/06/11 03:44:47;;;;;;;4.93;3.47;;;;;;;21.21;48.03;100049.28;4153880;28;20233;-67
2022/06/11 03:46:49;;;;;;;9.40;3.30;;;;;;;20.99;48.51;100052.41;4161263;28;20223;-67
2022/06/11 03:48:52;;;;;;;5.57;3.30;;;;;;;21.28;48.07;100047.38;4161559;28;24490;-67
2022/06/11 03:50:54;;;;;;;5.13;3.20;;;;;;;21.18;48.33;100053.28;4168398;28;20236;-67
2022/06/11 03:52:56;;;;;;;7.83;3.90;;;;;;;21.29;48.04;100043.59;4160436;28;20709;-67
2022/06/11 03:54:58;;;;;;;7.23;4.40;;;;;;;21.21;48.58;100041.16;4159692;28;20233;-67
2022/06/11 03:57:00;;;;;;;5.63;3.83;;;;;;;21.17;48.58;100043.50;4153559;28;20233;-67
2022/06/11 03:59:02;;;;;;;6.40;3.83;;;;;;;20.95;48.77;100067.41;4161744;28;20232;-67
2022/06/11 04:01:17;;;;;;;6.97;4.00;;;;;;;20.39;50.27;100063.59;4156622;28;20240;-67
2022/06/11 04:03:20;;;;;;;5.43;3.60;;;;;;;20.49;49.82;100055.03;4161264;28;20731;-67
2022/06/11 04:05:21;;;;;;;7.00;3.80;;;;;;;21.17;48.61;100048.91;4156322;28;20241;-67
2022/06/11 04:07:23;;;;;;;7.87;3.73;;;;;;;21.12;48.32;100056.84;4159006;28;20768;-67
2022/06/11 04:09:29;;;;;;;5.03;3.40;;;;;;;20.40;50.53;100081.47;4160163;28;20232;-67
2022/06/11 04:11:31;;;;;;;4.33;3.30;;;;;;;20.94;49.60;100046.81;4154330;28;20294;-67
2022/06/11 04:13:35;;;;;;;4.77;3.27;;;;;;;21.13;48.46;100072.03;4159583;28;20239;-67
2022/06/11 04:15:39;;;;;;;7.50;3.40;;;;;;;21.34;48.02;100066.25;4160020;28;20244;-67
2022/06/11 04:17:41;;;;;;;3.87;2.97;;;;;;;20.13;50.57;100086.94;4160400;28;20240;-67
2022/06/11 04:19:47;;;;;;;6.37;3.10;;;;;;;20.03;51.02;100078.47;4154366;28;20233;-67
2022/06/11 04:21:51;;;;;;;3.60;3.27;;;;;;;20.24;50.69;100064.66;4156135;28;20241;-67
2022/06/11 04:23:56;;;;;;;6.63;3.67;;;;;;;20.44;50.38;100072.69;4159514;28;20298;-67
2022/06/11 04:26:02;;;;;;;5.47;3.60;;;;;;;20.76;50.11;100061.06;4159202;28;20229;-67
2022/06/11 04:28:04;;;;;;;6.57;3.40;;;;;;;20.75;49.84;100078.31;4159191;28;20229;-67
2022/06/11 04:30:07;;;;;;;5.13;3.40;;;;;;;21.03;49.72;100072.53;4159933;28;20233;-67
2022/06/11 04:32:11;;;;;;;5.23;3.37;;;;;;;21.22;49.62;100073.41;4161303;28;20232;-67
2022/06/11 04:34:14;;;;;;;4.90;3.73;;;;;;;21.17;49.91;100078.66;4159141;28;21028;-67
2022/06/11 04:36:19;;;;;;;6.17;4.10;;;;;;;20.94;50.63;100066.53;4159101;28;20615;-67
2022/06/11 04:38:22;;;;;;;4.53;3.80;;;;;;;21.23;49.96;100085.88;4161066;28;20229;-67
2022/06/11 04:40:24;;;;;;;8.57;3.70;;;;;;;20.28;52.48;100102.91;4159444;28;20317;-67
2022/06/11 04:42:27;;;;;;;7.47;3.70;;;;;;;20.84;51.34;100076.16;4153836;28;20299;-67
2022/06/11 04:44:29;;;;;;;6.03;3.70;;;;;;;21.68;49.37;100085.69;4160365;28;20228;-67
2022/06/11 04:46:31;;;;;;;7.77;3.70;;;;;;;21.30;50.20;100085.81;4159054;28;20298;-67
2022/06/11 04:48:34;;;;;;;7.33;4.20;;;;;;;19.56;53.98;100118.25;4153531;28;20240;-67
2022/06/11 04:50:37;;;;;;;8.93;3.63;;;;;;;21.34;50.14;100068.94;4156775;28;20263;-67
2022/06/11 04:52:39;;;;;;;6.47;4.50;;;;;;;21.45;50.04;100086.31;4153978;28;20754;-67
2022/06/11 04:54:41;;;;;;;10.03;4.43;;;;;;;20.87;51.49;100097.34;4157141;28;20236;-67
2022/06/11 04:56:43;;;;;;;7.73;4.57;;;;;;;21.47;50.25;100096.91;4154117;28;20229;-67
2022/06/11 04:58:45;;;;;;;8.33;3.90;;;;;;;21.41;50.61;100103.19;4164637;28;20232;-67
2022/06/11 05:00:47;;;;;;;6.30;4.20;;;;;;;21.79;49.51;100111.16;4159890;28;20235;-67
2022/06/11 05:02:49;;;;;;;8.83;4.33;;;;;;;21.90;49.72;100115.84;4158355;28;20687;-67
2022/06/11 05:04:52;;;;;;;6.33;4.43;;;;;;;21.89;49.91;100116.88;4159758;28;20208;-67
2022/06/11 05:06:54;;;;;;;7.23;4.37;;;;;;;22.14;49.70;100123.31;4153802;28;20306;-67
2022/06/11 05:08:56;;;;;;;5.67;4.40;;;;;;;22.16;49.08;100113.06;4160064;28;20290;-67
2022/06/11 05:10:58;;;;;;;6.47;4.67;;;;;;;21.75;50.24;100128.06;4142942;28;20291;-67
2022/06/11 05:13:01;;;;;;;8.40;4.53;;;;;;;21.31;50.73;100142.41;4158390;28;20244;-67
2022/06/11 05:15:03;;;;;;;4.63;4.23;;;;;;;21.45;51.12;100104.41;4155109;28;20229;-67
2022/06/11 05:17:06;;;;;;;8.50;4.50;;;;;;;20.50;52.77;100132.28;4158717;28;20228;-67
2022/06/11 05:19:09;;;;;;;9.83;4.83;;;;;;;20.03;54.22;100141.38;4155346;28;20295;-67
2022/06/11 05:21:11;;;;;;;7.13;4.80;;;;;;;21.01;51.76;100098.16;4159437;28;20290;-67
2022/06/11 05:23:13;;;;;;;7.10;5.00;;;;;;;19.43;54.60;100132.53;4157959;28;20236;-67
2022/06/11 05:25:17;;;;;;;7.17;4.83;;;;;;;19.90;54.39;100106.34;4153242;28;20241;-67
2022/06/11 05:27:23;;;;;;;8.70;4.87;;;;;;;21.08;51.08;100117.84;4159203;28;20291;-67
2022/06/11 05:29:41;;;;;;;7.83;5.37;;;;;;;20.97;51.57;100105.84;4158225;28;20669;-67
2022/06/11 05:31:43;;;;;;;5.97;4.67;;;;;;;20.73;52.03;100120.94;4156054;28;20294;-67
2022/06/11 05:33:45;;;;;;;6.73;4.70;;;;;;;21.17;51.36;100132.72;4162947;28;20228;-67
2022/06/11 05:35:47;;;;;;;7.37;4.77;;;;;;;20.82;52.08;100130.47;4153172;28;20240;-67
2022/06/11 05:37:51;;;;;;;6.87;4.73;;;;;;;21.21;51.38;100133.13;4152764;28;20295;-67
2022/06/11 05:39:53;;;;;;;5.67;4.33;;;;;;;21.41;50.57;100122.97;4159067;28;20228;-67
2022/06/11 05:41:55;;;;;;;7.47;4.53;;;;;;;20.89;51.67;100139.34;4158257;28;20240;-67
2022/06/11 05:43:57;;;;;;;5.70;4.60;;;;;;;21.34;50.94;100109.50;4155701;28;20254;-67
2022/06/11 05:46:10;;;;;;;5.13;3.93;;;;;;;21.67;50.23;100116.50;4157972;28;20240;-67
2022/06/11 05:48:15;;;;;;;6.47;4.00;;;;;;;22.17;48.99;100134.50;4157753;28;20726;-67
2022/06/11 05:50:22;;;;;;;6.23;4.33;;;;;;;20.69;51.69;100158.38;4159275;28;20235;-67
2022/06/11 05:52:37;;;;;;;6.73;4.20;;;;;;;20.95;51.63;100146.59;4159799;28;20706;-67
2022/06/11 05:54:40;;;;;;;6.43;4.70;;;;;;;21.55;50.30;100135.31;4156433;28;20236;-67
2022/06/11 05:56:42;;;;;;;7.57;4.63;;;;;;;19.75;53.77;100178.59;4153371;28;20233;-67
2022/06/11 05:58:50;;;;;;;6.37;4.80;;;;;;;20.32;52.67;100162.72;4161961;28;21053;-67
2022/06/11 06:00:52;;;;;;;4.67;4.20;;;;;;;21.67;50.19;100132.75;4143953;28;21680;-67
2022/06/11 06:02:54;;;;;;;7.20;4.60;;;;;;;22.10;49.27;100147.28;4161289;28;20717;-67
2022/06/11 06:04:56;;;;;;;8.23;5.43;;;;;;;20.85;51.83;100178.66;4155916;28;20238;-67
2022/06/11 06:06:58;;;;;;;7.33;5.40;;;;;;;21.58;50.46;100144.03;4155519;28;20228;-67
2022/06/11 06:08:59;;;;;;;8.07;5.33;;;;;;;21.11;51.90;100187.69;4157799;28;20282;-67
2022/06/11 06:11:01;;;;;;;8.33;5.20;;;;;;;21.59;51.13;100157.34;4156764;28;20229;-67
2022/06/11 06:13:45;;;;;;;6.87;5.43;;;;;;;21.17;52.01;100178.69;4157996;28;20290;-67
2022/06/11 06:15:27;;;;;;;9.07;5.40;;;;;;;21.39;51.73;100172.91;4152968;28;20248;-67
2022/06/11 06:17:29;;;;;;;8.27;5.23;;;;;;;20.77;53.29;100182.47;4159878;28;20233;-67
2022/06/11 06:19:34;;;;;;;7.73;4.90;;;;;;;21.22;52.93;100151.00;4157962;28;20236;-67
2022/06/11 06:21:37;;;;;;;7.73;5.57;;;;;;;21.05;52.98;100158.81;4156953;28;20232;-67
2022/06/11 06:23:39;;;;;;;6.23;4.90;;;;;;;20.36;54.31;100169.34;4157739;28;20294;-67
2022/06/11 06:25:41;;;;;;;7.77;5.07;;;;;;;20.96;52.64;100169.06;4158650;28;20267;-67
2022/06/11 06:27:42;;;;;;;7.47;4.80;;;;;;;21.38;52.19;100133.38;4157215;28;20291;-67
2022/06/11 06:29:51;;;;;;;7.37;5.27;;;;;;;21.59;51.38;100168.16;4158433;28;20243;-67
2022/06/11 06:31:53;;;;;;;7.70;5.37;;;;;;;21.33;51.74;100166.53;4158689;28;20468;-67
2022/06/11 06:33:58;;;;;;;8.70;5.43;;;;;;;21.77;51.15;100170.13;4158790;28;20237;-67
2022/06/11 06:36:02;;;;;;;9.03;5.17;;;;;;;20.92;52.74;100205.66;4154977;28;20307;-67
2022/06/11 06:38:04;;;;;;;6.23;5.17;;;;;;;21.24;52.69;100187.63;4161475;28;20935;-67
2022/06/11 06:40:06;;;;;;;8.40;4.97;;;;;;;21.59;51.57;100170.88;4158537;28;20283;-67
2022/06/11 06:42:08;;;;;;;6.97;5.33;;;;;;;21.78;51.74;100162.81;4155634;28;20233;-67
2022/06/11 06:44:10;;;;;;;6.73;5.40;;;;;;;21.36;52.20;100177.72;4154850;28;20259;-67
2022/06/11 06:46:12;;;;;;;8.57;5.00;;;;;;;22.31;50.85;100166.88;4156738;28;20721;-67
2022/06/11 06:48:15;;;;;;;6.50;5.20;;;;;;;22.77;49.62;100160.00;4160361;28;20231;-67
2022/06/11 06:50:16;;;;;;;7.30;5.30;;;;;;;21.76;51.62;100219.06;4158699;28;20229;-67
2022/06/11 06:52:18;;;;;;;9.00;5.60;;;;;;;22.13;51.33;100178.50;4161029;28;20228;-67
2022/06/11 06:54:20;;;;;;;7.40;5.50;;;;;;;21.81;52.40;100208.41;4155694;28;20305;-67
2022/06/11 06:56:25;;;;;;;10.40;5.33;;;;;;;22.34;50.89;100178.09;4161176;28;20259;-67
2022/06/11 06:58:27;;;;;;;9.57;5.93;;;;;;;22.13;51.49;100181.22;4157660;28;20228;-67
2022/06/11 07:00:29;;;;;;;10.10;5.83;;;;;;;21.78;51.58;100220.50;4157495;28;20232;-67
2022/06/11 07:02:30;;;;;;;7.00;5.63;;;;;;;22.35;50.92;100193.25;4157807;28;20270;-67
2022/06/11 07:04:32;;;;;;;11.13;6.07;;;;;;;22.97;49.73;100195.00;4156824;28;20660;-68
2022/06/11 07:06:35;;;;;;;10.03;6.47;;;;;;;22.65;50.39;100206.03;4150515;28;20283;-67
2022/06/11 07:08:36;;;;;;;7.33;5.93;;;;;;;22.58;50.74;100218.84;4157931;28;20287;-67
2022/06/11 07:10:38;;;;;;;7.67;6.00;;;;;;;22.77;49.93;100217.75;4154617;28;20240;-67
2022/06/11 07:12:39;;;;;;;7.87;5.90;;;;;;;22.11;51.41;100213.94;4157598;28;20269;-67
2022/06/11 07:14:41;;;;;;;8.73;6.00;;;;;;;22.98;49.64;100185.81;4151925;28;20259;-67
2022/06/11 07:16:48;;;;;;;8.43;6.07;;;;;;;22.34;50.95;100213.31;4157378;28;20233;-67
2022/06/11 07:18:55;;;;;;;11.90;6.50;;;;;;;22.74;50.87;100212.81;4157433;28;20232;-67
2022/06/11 07:21:01;;;;;;;7.40;5.80;;;;;;;23.24;49.55;100178.34;4160751;28;20233;-67
2022/06/11 07:23:29;;;;;;;8.30;6.70;;;;;;;22.67;49.85;100216.66;4164627;28;20267;-67
2022/06/11 07:25:31;;;;;;;9.18;6.88;;;;;;;21.47;52.30;100235.69;4159123;28;20236;-67
2022/06/11 07:27:36;;;;;;;8.57;6.13;;;;;;;22.15;51.20;100209.69;4161860;28;20655;-67
2022/06/11 07:29:47;;;;;;;10.25;6.38;;;;;;;23.01;49.54;100169.06;4161448;28;20259;-67
2022/06/11 07:31:52;;;;;;;9.45;6.00;;;;;;;22.40;51.45;100198.00;4159259;28;20293;-67
2022/06/11 07:33:54;;;;;;;8.47;6.27;;;;;;;22.19;50.91;100216.34;4163276;28;20279;-67
2022/06/11 07:35:56;;;;;;;11.90;6.35;;;;;;;21.97;51.17;100231.38;4159335;28;20917;-67
2022/06/11 07:38:04;;;;;;;10.77;6.50;;;;;;;23.19;48.84;100179.03;4156540;28;20259;-67
2022/06/11 07:40:08;;;;;;;11.57;7.60;;;;;;;22.43;50.69;100198.38;4161752;28;20236;-67
2022/06/11 07:42:10;;;;;;;11.43;6.28;;;;;;;23.43;48.52;100176.34;4156622;28;20287;-67
2022/06/11 07:44:12;;;;;;;7.60;6.22;;;;;;;22.99;49.82;100190.19;4158470;28;20326;-67
2022/06/11 07:46:13;;;;;;;9.55;6.47;;;;;;;22.66;50.60;100205.00;4165468;28;20232;-67
2022/06/11 07:48:16;;;;;;;8.25;5.90;;;;;;;22.78;48.44;100221.31;4161192;28;20313;-67
2022/06/11 07:50:18;;;;;;;7.72;5.95;;;;;;;23.82;47.50;100196.56;4160417;28;20232;-67
2022/06/11 07:52:19;;;;;;;7.85;5.72;;;;;;;23.45;48.95;100204.09;4160303;28;20701;-67
2022/06/11 07:54:21;;;;;;;8.70;6.63;;;;;;;24.25;46.98;100217.13;4159926;28;20654;-67
2022/06/11 07:56:22;;;;;;;8.25;5.80;;;;;;;23.81;48.23;100221.28;4157080;28;20231;-67
2022/06/11 07:58:30;;;;;;;8.95;6.30;;;;;;;24.22;47.71;100205.91;4161015;28;20251;-67
2022/06/11 08:00:36;;;;;;;8.98;5.60;;;;;;;24.65;46.93;100210.91;4159933;28;20239;-67
2022/06/11 08:02:38;;;;;;;8.70;6.13;;;;;;;24.80;45.85;100209.56;4165074;28;20301;-67
2022/06/11 08:04:40;;;;;;;9.15;6.38;;;;;;;24.81;45.97;100213.94;4158571;28;20229;-67
2022/06/11 08:06:42;;;;;;;10.35;5.97;;;;;;;24.02;47.02;100238.84;4154081;28;20663;-67
2022/06/11 08:08:45;;;;;;;9.70;6.68;;;;;;;24.84;46.00;100206.13;4160859;28;20233;-67
2022/06/11 08:10:47;;;;;;;8.07;5.47;;;;;;;24.23;47.23;100232.03;4164428;28;20244;-67
2022/06/11 08:12:49;;;;;;;9.88;5.93;;;;;;;24.45;47.01;100215.94;4160002;28;20742;-67
2022/06/11 08:14:56;;;;;;;8.75;6.03;;;;;;;24.58;46.01;100218.38;4155172;28;20217;-67
2022/06/11 08:17:04;;;;;;;11.90;5.95;;;;;;;25.07;45.43;100208.97;4159376;28;20235;-67
2022/06/11 08:19:05;;;;;;;7.07;5.22;;;;;;;24.20;46.97;100235.22;4160735;28;20810;-67
2022/06/11 08:21:08;;;;;;;8.35;5.80;;;;;;;25.02;45.47;100204.25;4160620;28;20236;-67
2022/06/11 08:23:10;;;;;;;8.13;5.63;;;;;;;25.34;45.58;100196.41;4158634;28;20313;-67
2022/06/11 08:25:13;;;;;;;8.45;6.13;;;;;;;25.58;45.84;100205.25;4159641;28;20252;-67
2022/06/11 08:27:15;;;;;;;9.40;5.70;;;;;;;26.06;44.53;100210.34;4156604;28;20288;-67
2022/06/11 08:29:17;;;;;;;7.70;5.20;;;;;;;25.78;45.43;100218.34;4156815;28;20244;-67
2022/06/11 08:31:19;;;;;;;8.55;5.72;;;;;;;25.90;44.35;100233.78;4159162;28;20256;-67
2022/06/11 08:33:20;;;;;;;7.75;4.93;;;;;;;25.37;46.16;100239.50;4161015;28;20252;-67
2022/06/11 08:35:26;;;;;;;8.00;4.50;;;;;;;25.94;43.08;100213.97;4160232;28;20987;-67
2022/06/11 08:37:28;;;;;;;8.82;5.15;;;;;;;25.23;44.88;100217.16;4155174;28;20287;-67
2022/06/11 08:39:30;;;;;;;7.75;4.32;;;;;;;25.19;45.45;100220.63;4159050;28;20259;-67
2022/06/11 08:41:35;;;;;;;5.47;3.88;;;;;;;25.23;44.54;100219.06;4160715;28;20236;-67
2022/06/11 08:43:41;;;;;;;7.35;4.43;;;;;;;25.76;44.25;100203.31;4156869;28;20257;-67
2022/06/11 08:45:44;;;;;;;6.25;4.00;;;;;;;25.42;43.01;100209.63;4163411;28;20236;-67
2022/06/11 08:47:59;;;;;;;9.48;5.10;;;;;;;25.54;43.83;100216.88;4159567;28;20233;-67
2022/06/11 08:50:03;;;;;;;5.70;4.20;;;;;;;27.14;40.70;100226.09;4159035;28;20701;-67
2022/06/11 08:52:22;;;;;;;7.15;4.20;;;;;;;26.35;43.64;100238.25;4153917;28;20272;-67
2022/06/11 08:54:31;;;;;;;7.30;4.65;;;;;;;26.25;43.86;100224.47;4161230;28;20229;-67
2022/06/11 08:56:45;;;;;;;8.95;5.10;;;;;;;26.48;42.70;100232.41;4156066;28;20220;-67
2022/06/11 08:58:59;;;;;;;8.55;5.20;;;;;;;26.44;43.51;100214.94;4155938;28;20308;-67
2022/06/11 09:01:13;;;;;;;6.57;4.88;;;;;;;27.32;41.32;100207.72;4159765;28;20294;-67
2022/06/11 09:03:42;;;;;;;9.30;4.13;;;;;;;27.06;42.43;100227.41;4160324;28;20231;-68
2022/06/11 09:06:15;;;;;;;6.57;3.58;;;;;;;25.85;43.01;100225.53;4152506;28;20235;-67
2022/06/11 09:08:35;;;;;;;8.90;4.13;;;;;;;25.82;43.64;100206.97;4158385;28;20286;-67
2022/06/11 09:10:43;;;;;;;7.38;3.47;;;;;;;27.04;42.09;100195.94;4154926;28;20220;-68
2022/06/11 09:12:53;;;;;;;5.28;2.53;;;;;;;25.57;42.32;100200.88;4161610;28;20247;-67
2022/06/11 09:15:01;;;;;;;4.60;2.45;;;;;;;25.69;41.29;100208.13;4150621;28;20279;-67
2022/06/11 09:17:29;;;;;;;4.53;2.60;;;;;;;26.53;41.76;100186.16;4159798;28;20224;-67
2022/06/11 09:19:36;;;;;;;7.13;3.03;;;;;;;27.15;39.61;100200.47;4152442;28;20422;-67
2022/06/11 09:22:07;;;;;;;5.25;2.42;;;;;;;27.11;40.35;100220.34;4158521;28;20294;-67
2022/06/11 09:24:27;;;;;;;5.05;2.28;;;;;;;28.05;37.49;100204.41;4156165;28;20267;-67
2022/06/11 09:26:58;;;;;;;5.97;2.08;;;;;;;28.09;38.39;100219.19;4159673;28;20283;-67
2022/06/11 09:29:23;;;;;;;8.13;2.60;;;;;;;27.98;38.61;100226.50;4153893;28;20235;-67
2022/06/11 09:31:40;;;;;;;6.75;2.60;;;;;;;27.16;39.76;100207.59;4157018;28;20236;-67
2022/06/11 09:34:04;;;;;;;5.47;2.35;;;;;;;26.64;40.50;100203.47;4158378;28;20228;-67
2022/06/11 09:36:13;;;;;;;5.30;3.00;;;;;;;27.10;39.54;100188.69;4158498;28;20287;-66
2022/06/11 09:38:38;;;;;;;4.22;2.70;;;;;;;27.61;40.35;100200.84;4159602;28;20232;-67
2022/06/11 09:40:43;;;;;;;5.70;2.30;;;;;;;28.18;39.24;100187.56;4158173;28;20807;-67
2022/06/11 09:42:45;;;;;;;6.05;2.20;;;;;;;27.73;38.37;100208.03;4157496;28;20229;-67
2022/06/11 09:44:58;;;;;;;4.53;1.85;;;;;;;28.18;38.03;100207.53;4157860;28;20233;-67
2022/06/11 09:47:28;;;;;;;2.83;1.92;;;;;;;27.94;38.88;100187.97;4148461;28;20274;-67
2022/06/11 09:50:01;;;;;;;4.25;2.40;;;;;;;27.71;38.25;100205.56;4158376;28;20294;-67
2022/06/11 09:52:36;;;;;;;5.90;2.35;;;;;;;27.00;40.67;100192.09;4154472;28;20834;-67